Aérodrome :
LOGIN :

S'inscrire | Disclaimer

   EN    FR    IT 

 










Légende :    VFR   VFR Marginal   IFR   IFR Intensif   IFR Très Intensif
Visi : 
Plafond : 
>= 8 km
>= 3000ft
5 à 8 km
1000 à 3000 ft
1500m à 5 km
500 à 1000 ft
800 à 1500m
200 à 500 ft
< 800m
< 200 ft
Symboles :   Orages  Brouillard  Fortes neiges  Fortes précipitations  Vent > 20 kt
SIGMETs :   Divers  Orages  Givrage  Turbulence  Onde Orograph.  Cendres Volcan.







- Altitude de l'aérodrome : 3368 ft


LSGC - Les Eplatures

DERNIER METAR :
  • 211920Z AUTO VRB05KT 9999 // BKN011 SCT020 15/13 Q1022

METARs EXPIRÉS :
  • 211850Z AUTO 02005KT 310V050 9999 // BKN012 SCT017 16/13 Q1022
  • 211820Z AUTO 01007KT 300V050 9999 // BKN013 16/13 Q1022
  • 211750Z 34006KT 260V050 9999 BKN016 BKN030 17/14 Q1022
  • 211720Z 34007KT 280V060 9999 SCT027 SCT042 19/14 Q1022
  • 211650Z 35006KT 270V050 9999 SCT027 SCT042 19/14 Q1021

TAF TAF LSGC
Valide du 21 à 12h jusqu'au 21 à 21h UTC


211125Z 2112/2121 28006KT 9999 SCT030
BECMG 2118/2120 04016KT
Pas de NOTAMs connus pour ce terrain.



MET'MAP, la Météo Aéronautique d'un coup d'oeil ! - Copyright ORBIFLY Décembre 2007 - Disclaimer

ORBIFLY MET'MAP TEAM :

Programmation & Développement : Alexandra Zaïnal
Conception & Développement : Baudouin d'Aumeries
Co-Programmation & Développement : Marc-Olivier Méhu
Soutien technique & logistique : Manuel Goepfert

Contact : metmap@orbifly.com




SOURCES & CREDITS :

   NOAA